createdAt,value
2024-05-09T00:03:49.244Z,102892.41
2024-05-09T00:09:50.929Z,102886.88
2024-05-09T00:15:52.614Z,102884.91
2024-05-09T00:21:54.257Z,102872.25
2024-05-09T00:27:55.891Z,102870.28
2024-05-09T00:33:58.049Z,102871.59
2024-05-09T00:39:59.748Z,102869.31
2024-05-09T00:46:01.371Z,102870.63
2024-05-09T00:52:03.206Z,102868.53
2024-05-09T00:58:06.515Z,102861.13
2024-05-09T01:11:13.997Z,102863.16
2024-05-09T01:17:16.130Z,102870.22
2024-05-09T01:23:17.880Z,102879.81
2024-05-09T01:29:19.661Z,102866.97
2024-05-09T01:35:21.452Z,102872.16
2024-05-09T01:41:23.144Z,102866.31
2024-05-09T01:47:24.901Z,102864.88
2024-05-09T01:53:26.616Z,102868.88
2024-05-09T01:59:28.639Z,102871.16
2024-05-09T02:05:30.484Z,102869.19
2024-05-09T02:11:32.618Z,102861.81
2024-05-09T02:17:34.458Z,102868.34
2024-05-09T02:23:36.272Z,102865.94
2024-05-09T02:29:38.001Z,102869.06
2024-05-09T02:35:39.912Z,102872.22
2024-05-09T02:41:41.582Z,102864.38
2024-05-09T02:47:43.491Z,102865.66
2024-05-09T02:53:45.245Z,102871.38
2024-05-09T02:59:47.768Z,102864.53
2024-05-09T03:05:49.465Z,102868.53
2024-05-09T03:11:52.025Z,102867.94
2024-05-09T03:17:53.844Z,102879.94
2024-05-09T03:23:55.613Z,102872.09
2024-05-09T03:29:57.243Z,102869.53
2024-05-09T03:35:58.880Z,102862.50
2024-05-09T03:42:00.551Z,102868.63
2024-05-09T03:48:02.360Z,102865.09
2024-05-09T03:54:04.196Z,102865.97
2024-05-09T04:00:14.438Z,102854.94
2024-05-09T04:06:26.193Z,102849.94
2024-05-09T04:12:27.862Z,102850.50
2024-05-09T04:18:29.538Z,102840.09
2024-05-09T04:24:31.175Z,102841.91
2024-05-09T04:30:38.394Z,102841.88
2024-05-09T04:36:44.575Z,102852.41
2024-05-09T04:42:46.340Z,102850.94
2024-05-09T04:48:48.067Z,102855.56
2024-05-09T04:54:49.745Z,102851.91
2024-05-09T05:00:51.380Z,102849.78
2024-05-09T05:06:53.049Z,102850.38
2024-05-09T05:12:54.674Z,102856.94
2024-05-09T05:18:56.308Z,102852.75
2024-05-09T05:24:57.927Z,102861.81
2024-05-09T05:30:59.625Z,102852.63
2024-05-09T05:37:01.276Z,102846.84
2024-05-09T05:43:06.370Z,102838.28
2024-05-09T05:49:08.152Z,102839.41
2024-05-09T05:55:09.793Z,102832.69
2024-05-09T06:01:11.399Z,102834.03
2024-05-09T06:07:13.074Z,102838.97
2024-05-09T06:13:14.764Z,102839.25
2024-05-09T06:19:16.435Z,102830.69
2024-05-09T06:25:18.121Z,102832.78
2024-05-09T06:31:19.669Z,102828.34
2024-05-09T06:37:21.358Z,102836.34
2024-05-09T06:43:23.236Z,102835.84
2024-05-09T06:49:25.001Z,102826.34
2024-05-09T06:55:26.720Z,102834.63
2024-05-09T07:01:28.440Z,102831.88
2024-05-09T07:07:30.059Z,102828.56
2024-05-09T07:13:31.663Z,102828.97
2024-05-09T07:19:33.468Z,102820.50
2024-05-09T07:25:35.162Z,102816.16
2024-05-09T07:31:36.761Z,102814.66
2024-05-09T07:37:38.556Z,102803.38
2024-05-09T07:43:40.127Z,102804.59
2024-05-09T07:51:32.267Z,102800.75
2024-05-09T07:56:03.634Z,102801.25
2024-05-09T08:02:06.417Z,102800.47
2024-05-09T08:08:08.210Z,102789.00
2024-05-09T08:14:09.823Z,102785.75
2024-05-09T08:20:13.225Z,102779.09
2024-05-09T08:26:20.296Z,102781.56
2024-05-09T08:32:21.938Z,102770.53
2024-05-09T08:38:23.677Z,102772.44
2024-05-09T08:44:25.353Z,102772.72
2024-05-09T08:50:35.471Z,102765.94
2024-05-09T08:56:45.541Z,102766.38
2024-05-09T09:02:49.548Z,102762.19
2024-05-09T09:08:52.509Z,102759.41
2024-05-09T09:14:54.095Z,102759.38
2024-05-09T09:20:57.193Z,102747.72
2024-05-09T09:26:58.885Z,102754.72
2024-05-09T09:33:00.592Z,102749.56
2024-05-09T09:39:02.771Z,102757.84
2024-05-09T09:45:05.935Z,102745.72
2024-05-09T09:51:08.611Z,102736.50
2024-05-09T09:57:10.440Z,102734.72
2024-05-09T10:03:12.430Z,102734.06
2024-05-09T10:09:15.223Z,102726.75
2024-05-09T10:15:19.710Z,102730.75
2024-05-09T10:21:21.373Z,102723.09
2024-05-09T10:27:30.466Z,102720.38
2024-05-09T10:33:53.112Z,102718.63
2024-05-09T10:39:57.673Z,102717.34
2024-05-09T10:45:59.744Z,102706.19
2024-05-09T10:52:04.082Z,102696.53
2024-05-09T10:58:17.184Z,102696.44
2024-05-09T11:04:19.095Z,102686.09
2024-05-09T11:15:13.873Z,102669.06
2024-05-09T11:21:15.514Z,102674.09
2024-05-09T11:27:20.912Z,102675.78
2024-05-09T11:33:22.600Z,102670.63
2024-05-09T11:39:24.434Z,102671.94
2024-05-09T11:45:26.094Z,102653.44
2024-05-09T11:51:27.857Z,102653.50
2024-05-09T11:57:30.285Z,102645.34
2024-05-09T12:03:33.016Z,102648.22
2024-05-09T12:09:35.100Z,102632.19
2024-05-09T12:15:38.186Z,102638.13
2024-05-09T12:21:40.551Z,102622.72
2024-05-09T12:27:42.261Z,102622.31
2024-05-09T12:33:44.556Z,102613.84
2024-05-09T12:39:46.366Z,102612.34
2024-05-09T12:45:48.071Z,102611.53
2024-05-09T12:51:49.871Z,102605.97
2024-05-09T12:57:51.635Z,102595.41
2024-05-09T13:03:53.487Z,102576.97
2024-05-09T13:09:55.370Z,102576.94
2024-05-09T13:15:57.229Z,102564.38
2024-05-09T13:21:59.041Z,102557.69
2024-05-09T13:28:00.903Z,102559.66
2024-05-09T13:34:02.777Z,102541.78
2024-05-09T13:40:07.119Z,102542.88
2024-05-09T13:46:09.252Z,102539.53
2024-05-09T13:52:11.055Z,102534.78
2024-05-09T13:58:12.956Z,102524.13
2024-05-09T14:04:15.065Z,102511.81
2024-05-09T14:10:23.242Z,102502.53
2024-05-09T14:16:31.288Z,102496.97
2024-05-09T14:22:33.047Z,102496.09
2024-05-09T14:28:34.782Z,102490.19
2024-05-09T14:34:36.506Z,102487.88
2024-05-09T14:40:43.003Z,102491.06
2024-05-09T14:46:45.960Z,102482.22
2024-05-09T14:52:47.988Z,102483.47
2024-05-09T14:58:49.765Z,102467.44
2024-05-09T15:04:52.323Z,102474.41
2024-05-09T15:10:54.163Z,102466.03
2024-05-09T15:16:56.034Z,102456.78
2024-05-09T15:22:58.202Z,102452.56
2024-05-09T15:28:59.934Z,102460.09
2024-05-09T15:35:01.556Z,102465.13
2024-05-09T15:41:03.260Z,102447.50
2024-05-09T15:47:06.434Z,102457.16
2024-05-09T15:53:12.062Z,102450.13
2024-05-09T15:59:15.890Z,102440.63
2024-05-09T16:05:17.707Z,102437.22
2024-05-09T16:11:19.735Z,102435.09
2024-05-09T16:17:21.438Z,102427.97
2024-05-09T16:23:23.093Z,102434.69
2024-05-09T16:29:24.763Z,102429.50
2024-05-09T16:35:26.417Z,102434.84
2024-05-09T16:41:28.208Z,102435.66
2024-05-09T16:47:29.990Z,102438.75
2024-05-09T16:53:31.652Z,102442.03
2024-05-09T16:59:33.425Z,102443.66
2024-05-09T17:05:35.867Z,102437.84
2024-05-09T17:11:37.904Z,102443.63
2024-05-09T17:17:40.211Z,102431.34
2024-05-09T17:23:41.799Z,102431.75
2024-05-09T17:29:43.465Z,102429.91
2024-05-09T17:35:45.123Z,102426.38
2024-05-09T17:41:46.801Z,102423.63
2024-05-09T17:47:48.570Z,102431.38
2024-05-09T17:53:50.195Z,102430.88
2024-05-09T17:59:51.822Z,102420.41
2024-05-09T18:05:53.508Z,102430.06
2024-05-09T18:11:55.218Z,102429.78
2024-05-09T18:17:57.099Z,102425.84
2024-05-09T18:24:00.154Z,102426.63
2024-05-09T18:30:03.226Z,102435.97
2024-05-09T18:36:06.266Z,102432.00
2024-05-09T18:42:07.918Z,102437.75
2024-05-09T18:48:10.209Z,102439.03
2024-05-09T18:54:12.651Z,102446.38
2024-05-09T19:00:26.642Z,102440.44
2024-05-09T19:06:35.825Z,102447.53
2024-05-09T19:12:37.625Z,102445.75
2024-05-09T19:18:39.443Z,102444.16
2024-05-09T19:24:41.237Z,102445.25
2024-05-09T19:30:43.330Z,102437.09
2024-05-09T19:36:45.243Z,102439.69
2024-05-09T19:42:46.891Z,102438.03
2024-05-09T19:48:48.730Z,102441.69
2024-05-09T19:54:50.605Z,102438.75
2024-05-09T20:00:52.341Z,102433.91
2024-05-09T20:06:53.998Z,102433.50
2024-05-09T20:12:55.653Z,102427.34
2024-05-09T20:18:57.539Z,102434.16
2024-05-09T20:25:00.797Z,102431.81
2024-05-09T20:31:03.174Z,102429.31
2024-05-09T20:37:04.873Z,102425.25
2024-05-09T20:43:08.450Z,102431.81
2024-05-09T20:49:10.365Z,102428.66
2024-05-09T20:55:12.244Z,102431.59
2024-05-09T21:01:14.026Z,102429.06
2024-05-09T21:07:15.791Z,102429.03
2024-05-09T21:13:17.579Z,102435.59
2024-05-09T21:19:19.612Z,102432.63
2024-05-09T21:25:21.375Z,102425.44
2024-05-09T21:31:23.122Z,102424.97
2024-05-09T21:37:24.776Z,102419.47
2024-05-09T21:43:26.460Z,102417.09
2024-05-09T21:49:28.211Z,102412.44
2024-05-09T21:55:29.875Z,102406.94
2024-05-09T22:01:31.579Z,102412.19
2024-05-09T22:07:33.310Z,102410.28
2024-05-09T22:13:35.416Z,102412.78
2024-05-09T22:19:37.209Z,102403.47
2024-05-09T22:25:38.952Z,102402.38
2024-05-09T22:31:40.663Z,102403.84
2024-05-09T22:37:42.350Z,102407.41
2024-05-09T22:43:43.987Z,102405.28
2024-05-09T22:49:45.779Z,102409.47
2024-05-09T22:55:47.435Z,102409.91
2024-05-09T23:01:49.078Z,102405.84
2024-05-09T23:07:50.792Z,102408.34
2024-05-09T23:13:52.367Z,102401.59
2024-05-09T23:19:53.987Z,102403.91
2024-05-09T23:25:55.577Z,102401.53
2024-05-09T23:31:57.129Z,102392.03
2024-05-09T23:37:58.779Z,102386.94
2024-05-09T23:44:00.372Z,102382.72
2024-05-09T23:50:03.792Z,102380.56
2024-05-09T23:56:07.298Z,102375.47
